sensor_id;sensor_type;location;lat;lon;timestamp;temperature;humidity
21108;DHT22;10712;52.944;9.098;2022-09-21T00:01:28;8.30;87.90
21108;DHT22;10712;52.944;9.098;2022-09-21T00:04:00;8.30;87.90
21108;DHT22;10712;52.944;9.098;2022-09-21T00:06:30;8.30;87.90
21108;DHT22;10712;52.944;9.098;2022-09-21T00:08:58;8.30;87.80
21108;DHT22;10712;52.944;9.098;2022-09-21T00:11:30;8.30;87.70
21108;DHT22;10712;52.944;9.098;2022-09-21T00:13:59;8.30;87.80
21108;DHT22;10712;52.944;9.098;2022-09-21T00:16:29;8.30;87.80
21108;DHT22;10712;52.944;9.098;2022-09-21T00:18:56;8.30;87.60
21108;DHT22;10712;52.944;9.098;2022-09-21T00:21:22;8.20;87.40
21108;DHT22;10712;52.944;9.098;2022-09-21T00:23:48;8.20;87.40
21108;DHT22;10712;52.944;9.098;2022-09-21T00:26:20;8.10;87.50
21108;DHT22;10712;52.944;9.098;2022-09-21T00:28:50;8.10;87.60
21108;DHT22;10712;52.944;9.098;2022-09-21T00:31:18;8.10;87.50
21108;DHT22;10712;52.944;9.098;2022-09-21T00:33:44;8.10;87.30
21108;DHT22;10712;52.944;9.098;2022-09-21T00:36:16;8.00;87.10
21108;DHT22;10712;52.944;9.098;2022-09-21T00:38:44;7.90;87.40
21108;DHT22;10712;52.944;9.098;2022-09-21T00:41:13;7.90;87.70
21108;DHT22;10712;52.944;9.098;2022-09-21T00:43:44;7.90;87.80
21108;DHT22;10712;52.944;9.098;2022-09-21T00:46:30;7.90;87.90
21108;DHT22;10712;52.944;9.098;2022-09-21T00:48:56;7.90;87.70
21108;DHT22;10712;52.944;9.098;2022-09-21T00:51:23;7.90;87.70
21108;DHT22;10712;52.944;9.098;2022-09-21T00:53:57;7.90;87.60
21108;DHT22;10712;52.944;9.098;2022-09-21T00:56:33;7.90;87.70
21108;DHT22;10712;52.944;9.098;2022-09-21T00:59:02;8.00;87.70
21108;DHT22;10712;52.944;9.098;2022-09-21T01:01:29;8.00;87.80
21108;DHT22;10712;52.944;9.098;2022-09-21T01:03:55;8.00;87.70
21108;DHT22;10712;52.944;9.098;2022-09-21T01:06:22;8.00;87.50
21108;DHT22;10712;52.944;9.098;2022-09-21T01:08:53;7.90;87.40
21108;DHT22;10712;52.944;9.098;2022-09-21T01:18:22;7.80;87.40
21108;DHT22;10712;52.944;9.098;2022-09-21T01:21:17;7.80;87.40
21108;DHT22;10712;52.944;9.098;2022-09-21T01:30:07;7.70;87.10
21108;DHT22;10712;52.944;9.098;2022-09-21T01:32:46;7.60;87.10
21108;DHT22;10712;52.944;9.098;2022-09-21T01:35:29;7.60;87.10
21108;DHT22;10712;52.944;9.098;2022-09-21T01:38:02;7.60;87.00
21108;DHT22;10712;52.944;9.098;2022-09-21T01:40:38;7.60;87.10
21108;DHT22;10712;52.944;9.098;2022-09-21T01:43:11;7.60;87.00
21108;DHT22;10712;52.944;9.098;2022-09-21T01:45:48;7.60;86.90
21108;DHT22;10712;52.944;9.098;2022-09-21T01:48:19;7.50;87.00
21108;DHT22;10712;52.944;9.098;2022-09-21T01:50:52;7.50;87.00
21108;DHT22;10712;52.944;9.098;2022-09-21T01:53:32;7.50;86.70
21108;DHT22;10712;52.944;9.098;2022-09-21T01:56:11;7.40;87.00
21108;DHT22;10712;52.944;9.098;2022-09-21T02:01:52;7.40;87.10
21108;DHT22;10712;52.944;9.098;2022-09-21T02:04:22;7.30;86.80
21108;DHT22;10712;52.944;9.098;2022-09-21T02:06:49;7.30;87.00
21108;DHT22;10712;52.944;9.098;2022-09-21T02:09:16;7.30;87.20
21108;DHT22;10712;52.944;9.098;2022-09-21T02:11:42;7.30;87.20
21108;DHT22;10712;52.944;9.098;2022-09-21T02:14:12;7.20;86.70
21108;DHT22;10712;52.944;9.098;2022-09-21T02:20:17;7.00;87.20
21108;DHT22;10712;52.944;9.098;2022-09-21T02:23:11;7.00;87.60
21108;DHT22;10712;52.944;9.098;2022-09-21T02:26:02;7.00;87.70
21108;DHT22;10712;52.944;9.098;2022-09-21T02:28:43;7.00;87.60
21108;DHT22;10712;52.944;9.098;2022-09-21T02:31:41;7.00;87.80
21108;DHT22;10712;52.944;9.098;2022-09-21T02:34:33;7.00;87.60
21108;DHT22;10712;52.944;9.098;2022-09-21T02:37:19;6.90;87.60
21108;DHT22;10712;52.944;9.098;2022-09-21T02:42:40;6.90;87.40
21108;DHT22;10712;52.944;9.098;2022-09-21T02:45:17;6.80;87.60
21108;DHT22;10712;52.944;9.098;2022-09-21T02:47:59;6.80;87.50
21108;DHT22;10712;52.944;9.098;2022-09-21T02:50:41;6.80;87.50
21108;DHT22;10712;52.944;9.098;2022-09-21T02:53:12;6.80;87.70
21108;DHT22;10712;52.944;9.098;2022-09-21T02:55:43;6.80;87.70
21108;DHT22;10712;52.944;9.098;2022-09-21T02:58:13;6.80;87.80
21108;DHT22;10712;52.944;9.098;2022-09-21T03:00:41;6.80;87.70
21108;DHT22;10712;52.944;9.098;2022-09-21T03:03:18;6.80;87.70
21108;DHT22;10712;52.944;9.098;2022-09-21T03:05:48;6.80;87.60
21108;DHT22;10712;52.944;9.098;2022-09-21T03:08:18;6.80;87.50
21108;DHT22;10712;52.944;9.098;2022-09-21T03:10:45;6.80;87.30
21108;DHT22;10712;52.944;9.098;2022-09-21T03:13:13;6.80;87.50
21108;DHT22;10712;52.944;9.098;2022-09-21T03:15:40;6.70;87.50
21108;DHT22;10712;52.944;9.098;2022-09-21T03:18:07;6.70;87.50
21108;DHT22;10712;52.944;9.098;2022-09-21T03:20:36;6.70;87.30
21108;DHT22;10712;52.944;9.098;2022-09-21T03:23:03;6.60;87.20
21108;DHT22;10712;52.944;9.098;2022-09-21T03:25:29;6.60;87.30
21108;DHT22;10712;52.944;9.098;2022-09-21T03:27:56;6.60;87.40
21108;DHT22;10712;52.944;9.098;2022-09-21T03:30:24;6.50;87.40
21108;DHT22;10712;52.944;9.098;2022-09-21T03:32:52;6.50;87.50
21108;DHT22;10712;52.944;9.098;2022-09-21T03:35:19;6.50;87.40
21108;DHT22;10712;52.944;9.098;2022-09-21T03:37:47;6.50;87.40
21108;DHT22;10712;52.944;9.098;2022-09-21T03:40:15;6.50;87.30
21108;DHT22;10712;52.944;9.098;2022-09-21T03:42:42;6.40;87.50
21108;DHT22;10712;52.944;9.098;2022-09-21T03:45:09;6.50;87.50
21108;DHT22;10712;52.944;9.098;2022-09-21T03:47:37;6.40;87.40
21108;DHT22;10712;52.944;9.098;2022-09-21T03:50:05;6.40;87.40
21108;DHT22;10712;52.944;9.098;2022-09-21T03:52:32;6.40;87.40
21108;DHT22;10712;52.944;9.098;2022-09-21T03:54:58;6.40;87.40
21108;DHT22;10712;52.944;9.098;2022-09-21T03:57:24;6.40;87.30
21108;DHT22;10712;52.944;9.098;2022-09-21T03:59:50;6.40;87.20
21108;DHT22;10712;52.944;9.098;2022-09-21T04:02:16;6.40;87.20
21108;DHT22;10712;52.944;9.098;2022-09-21T04:04:42;6.40;87.10
21108;DHT22;10712;52.944;9.098;2022-09-21T04:07:08;6.40;86.90
21108;DHT22;10712;52.944;9.098;2022-09-21T04:09:33;6.40;86.80
21108;DHT22;10712;52.944;9.098;2022-09-21T04:11:59;6.30;86.60
21108;DHT22;10712;52.944;9.098;2022-09-21T04:14:25;6.20;86.90
21108;DHT22;10712;52.944;9.098;2022-09-21T04:16:51;6.20;87.00
21108;DHT22;10712;52.944;9.098;2022-09-21T04:19:17;6.20;86.90
21108;DHT22;10712;52.944;9.098;2022-09-21T04:21:43;6.20;86.90
21108;DHT22;10712;52.944;9.098;2022-09-21T04:24:09;6.20;86.80
21108;DHT22;10712;52.944;9.098;2022-09-21T04:26:35;6.20;86.70
21108;DHT22;10712;52.944;9.098;2022-09-21T04:29:02;6.10;86.70
21108;DHT22;10712;52.944;9.098;2022-09-21T04:31:30;6.10;86.80
21108;DHT22;10712;52.944;9.098;2022-09-21T04:33:56;6.10;86.80
21108;DHT22;10712;52.944;9.098;2022-09-21T04:36:24;6.10;86.80
21108;DHT22;10712;52.944;9.098;2022-09-21T04:38:50;6.10;86.90
21108;DHT22;10712;52.944;9.098;2022-09-21T04:41:17;6.10;86.80
21108;DHT22;10712;52.944;9.098;2022-09-21T04:43:44;6.10;86.60
21108;DHT22;10712;52.944;9.098;2022-09-21T04:46:13;6.00;86.30
21108;DHT22;10712;52.944;9.098;2022-09-21T04:48:41;5.90;86.60
21108;DHT22;10712;52.944;9.098;2022-09-21T04:51:09;5.90;87.10
21108;DHT22;10712;52.944;9.098;2022-09-21T04:53:36;5.90;87.20
21108;DHT22;10712;52.944;9.098;2022-09-21T04:56:05;5.90;87.10
21108;DHT22;10712;52.944;9.098;2022-09-21T04:58:32;5.90;87.30
21108;DHT22;10712;52.944;9.098;2022-09-21T05:00:58;5.90;87.10
21108;DHT22;10712;52.944;9.098;2022-09-21T05:03:25;5.90;87.00
21108;DHT22;10712;52.944;9.098;2022-09-21T05:05:55;5.80;87.20
21108;DHT22;10712;52.944;9.098;2022-09-21T05:08:23;5.80;87.30
21108;DHT22;10712;52.944;9.098;2022-09-21T05:11:12;5.80;87.30
21108;DHT22;10712;52.944;9.098;2022-09-21T05:13:41;5.80;87.40
21108;DHT22;10712;52.944;9.098;2022-09-21T05:16:07;5.90;87.30
21108;DHT22;10712;52.944;9.098;2022-09-21T05:18:33;5.80;87.20
21108;DHT22;10712;52.944;9.098;2022-09-21T05:21:01;5.80;87.30
21108;DHT22;10712;52.944;9.098;2022-09-21T05:23:29;5.80;87.40
21108;DHT22;10712;52.944;9.098;2022-09-21T05:25:57;5.80;87.50
21108;DHT22;10712;52.944;9.098;2022-09-21T05:28:24;5.90;87.50
21108;DHT22;10712;52.944;9.098;2022-09-21T05:33:37;5.80;87.40
21108;DHT22;10712;52.944;9.098;2022-09-21T05:39:02;5.90;87.50
21108;DHT22;10712;52.944;9.098;2022-09-21T05:41:28;5.90;87.60
21108;DHT22;10712;52.944;9.098;2022-09-21T05:43:55;5.90;87.60
21108;DHT22;10712;52.944;9.098;2022-09-21T05:49:01;5.90;87.70
21108;DHT22;10712;52.944;9.098;2022-09-21T05:51:50;5.90;87.80
21108;DHT22;10712;52.944;9.098;2022-09-21T06:05:37;6.00;88.10
21108;DHT22;10712;52.944;9.098;2022-09-21T06:08:04;6.00;88.40
21108;DHT22;10712;52.944;9.098;2022-09-21T06:10:32;6.10;88.50
21108;DHT22;10712;52.944;9.098;2022-09-21T06:12:59;6.10;88.50
21108;DHT22;10712;52.944;9.098;2022-09-21T06:15:25;6.20;88.40
21108;DHT22;10712;52.944;9.098;2022-09-21T06:17:51;6.30;88.30
21108;DHT22;10712;52.944;9.098;2022-09-21T06:20:17;6.30;88.20
21108;DHT22;10712;52.944;9.098;2022-09-21T06:22:43;6.40;88.00
21108;DHT22;10712;52.944;9.098;2022-09-21T06:25:09;6.40;87.90
21108;DHT22;10712;52.944;9.098;2022-09-21T06:27:35;6.50;87.80
21108;DHT22;10712;52.944;9.098;2022-09-21T06:30:01;6.50;87.70
21108;DHT22;10712;52.944;9.098;2022-09-21T06:32:27;6.60;87.60
21108;DHT22;10712;52.944;9.098;2022-09-21T06:34:53;6.60;87.40
21108;DHT22;10712;52.944;9.098;2022-09-21T06:37:18;6.60;87.50
21108;DHT22;10712;52.944;9.098;2022-09-21T06:39:44;6.70;87.80
21108;DHT22;10712;52.944;9.098;2022-09-21T06:42:10;6.70;88.00
21108;DHT22;10712;52.944;9.098;2022-09-21T06:44:36;6.80;88.40
21108;DHT22;10712;52.944;9.098;2022-09-21T06:47:02;6.80;88.70
21108;DHT22;10712;52.944;9.098;2022-09-21T06:49:28;6.80;88.90
21108;DHT22;10712;52.944;9.098;2022-09-21T06:51:54;6.90;89.20
21108;DHT22;10712;52.944;9.098;2022-09-21T06:54:20;6.90;89.50
21108;DHT22;10712;52.944;9.098;2022-09-21T06:56:46;7.00;89.80
21108;DHT22;10712;52.944;9.098;2022-09-21T06:59:12;7.10;89.90
21108;DHT22;10712;52.944;9.098;2022-09-21T07:01:38;7.10;90.00
21108;DHT22;10712;52.944;9.098;2022-09-21T07:04:04;7.20;90.20
21108;DHT22;10712;52.944;9.098;2022-09-21T07:06:31;7.30;90.40
21108;DHT22;10712;52.944;9.098;2022-09-21T07:08:57;7.30;90.80
21108;DHT22;10712;52.944;9.098;2022-09-21T07:11:23;7.40;91.10
21108;DHT22;10712;52.944;9.098;2022-09-21T07:13:49;7.40;91.30
21108;DHT22;10712;52.944;9.098;2022-09-21T07:16:15;7.50;91.50
21108;DHT22;10712;52.944;9.098;2022-09-21T07:18:41;7.60;91.80
21108;DHT22;10712;52.944;9.098;2022-09-21T07:21:09;7.70;91.80
21108;DHT22;10712;52.944;9.098;2022-09-21T07:23:36;7.80;92.30
21108;DHT22;10712;52.944;9.098;2022-09-21T07:26:13;7.90;92.10
21108;DHT22;10712;52.944;9.098;2022-09-21T07:28:40;8.00;92.20
21108;DHT22;10712;52.944;9.098;2022-09-21T07:31:08;8.10;92.40
21108;DHT22;10712;52.944;9.098;2022-09-21T07:33:42;8.20;92.60
21108;DHT22;10712;52.944;9.098;2022-09-21T07:36:11;8.20;92.60
21108;DHT22;10712;52.944;9.098;2022-09-21T07:38:41;8.30;92.80
21108;DHT22;10712;52.944;9.098;2022-09-21T07:41:14;8.40;92.90
21108;DHT22;10712;52.944;9.098;2022-09-21T07:43:40;8.50;93.30
21108;DHT22;10712;52.944;9.098;2022-09-21T07:46:08;8.60;93.30
21108;DHT22;10712;52.944;9.098;2022-09-21T07:48:35;8.70;93.30
21108;DHT22;10712;52.944;9.098;2022-09-21T07:51:10;8.70;93.30
21108;DHT22;10712;52.944;9.098;2022-09-21T07:53:40;8.80;93.40
21108;DHT22;10712;52.944;9.098;2022-09-21T07:56:13;8.90;93.70
21108;DHT22;10712;52.944;9.098;2022-09-21T07:58:41;9.00;93.70
21108;DHT22;10712;52.944;9.098;2022-09-21T08:01:27;9.10;93.80
21108;DHT22;10712;52.944;9.098;2022-09-21T08:03:55;9.20;94.00
21108;DHT22;10712;52.944;9.098;2022-09-21T08:06:23;9.30;94.20
21108;DHT22;10712;52.944;9.098;2022-09-21T08:08:52;9.40;94.30
21108;DHT22;10712;52.944;9.098;2022-09-21T08:11:20;9.50;94.20
21108;DHT22;10712;52.944;9.098;2022-09-21T08:13:55;9.50;94.30
21108;DHT22;10712;52.944;9.098;2022-09-21T08:16:26;9.60;94.30
21108;DHT22;10712;52.944;9.098;2022-09-21T08:18:53;9.70;94.30
21108;DHT22;10712;52.944;9.098;2022-09-21T08:21:19;9.80;94.30
21108;DHT22;10712;52.944;9.098;2022-09-21T08:23:47;9.90;94.30
21108;DHT22;10712;52.944;9.098;2022-09-21T08:26:15;10.00;94.30
21108;DHT22;10712;52.944;9.098;2022-09-21T08:28:44;10.10;94.30
21108;DHT22;10712;52.944;9.098;2022-09-21T08:31:16;10.20;94.20
21108;DHT22;10712;52.944;9.098;2022-09-21T08:33:44;10.30;94.00
21108;DHT22;10712;52.944;9.098;2022-09-21T08:36:11;10.40;94.00
21108;DHT22;10712;52.944;9.098;2022-09-21T08:38:38;10.50;93.90
21108;DHT22;10712;52.944;9.098;2022-09-21T08:41:19;10.60;93.80
21108;DHT22;10712;52.944;9.098;2022-09-21T08:43:58;10.70;93.40
21108;DHT22;10712;52.944;9.098;2022-09-21T08:46:34;10.80;93.00
21108;DHT22;10712;52.944;9.098;2022-09-21T08:52:03;11.00;92.50
21108;DHT22;10712;52.944;9.098;2022-09-21T08:54:59;11.10;92.40
21108;DHT22;10712;52.944;9.098;2022-09-21T08:57:41;11.30;92.20
21108;DHT22;10712;52.944;9.098;2022-09-21T09:00:13;11.40;92.00
21108;DHT22;10712;52.944;9.098;2022-09-21T09:03:25;11.50;91.90
21108;DHT22;10712;52.944;9.098;2022-09-21T09:05:54;11.60;91.60
21108;DHT22;10712;52.944;9.098;2022-09-21T09:11:49;11.80;91.00
21108;DHT22;10712;52.944;9.098;2022-09-21T09:14:59;12.00;90.40
21108;DHT22;10712;52.944;9.098;2022-09-21T09:18:16;12.10;89.40
21108;DHT22;10712;52.944;9.098;2022-09-21T09:20:45;12.20;89.30
21108;DHT22;10712;52.944;9.098;2022-09-21T09:26:05;12.40;88.50
21108;DHT22;10712;52.944;9.098;2022-09-21T09:28:44;12.50;88.10
21108;DHT22;10712;52.944;9.098;2022-09-21T09:31:20;12.60;87.00
21108;DHT22;10712;52.944;9.098;2022-09-21T09:33:56;12.80;86.40
21108;DHT22;10712;52.944;9.098;2022-09-21T09:36:32;12.80;85.60
21108;DHT22;10712;52.944;9.098;2022-09-21T09:39:09;12.90;85.40
21108;DHT22;10712;52.944;9.098;2022-09-21T09:50:07;13.20;83.70
21108;DHT22;10712;52.944;9.098;2022-09-21T09:52:36;13.30;83.50
21108;DHT22;10712;52.944;9.098;2022-09-21T09:55:16;13.40;83.20
21108;DHT22;10712;52.944;9.098;2022-09-21T09:57:47;13.50;82.30
21108;DHT22;10712;52.944;9.098;2022-09-21T10:00:17;13.60;80.30
21108;DHT22;10712;52.944;9.098;2022-09-21T10:03:14;13.70;80.20
21108;DHT22;10712;52.944;9.098;2022-09-21T10:05:41;13.80;79.90
21108;DHT22;10712;52.944;9.098;2022-09-21T10:08:43;13.90;78.50
21108;DHT22;10712;52.944;9.098;2022-09-21T10:11:13;14.00;77.70
21108;DHT22;10712;52.944;9.098;2022-09-21T10:13:45;14.00;76.90
21108;DHT22;10712;52.944;9.098;2022-09-21T10:16:20;14.00;77.30
21108;DHT22;10712;52.944;9.098;2022-09-21T10:18:56;13.90;76.90
21108;DHT22;10712;52.944;9.098;2022-09-21T10:21:35;14.00;77.30
21108;DHT22;10712;52.944;9.098;2022-09-21T10:24:23;14.00;76.70
21108;DHT22;10712;52.944;9.098;2022-09-21T10:27:15;14.10;76.70
21108;DHT22;10712;52.944;9.098;2022-09-21T10:29:48;14.20;76.90
21108;DHT22;10712;52.944;9.098;2022-09-21T10:35:18;14.40;75.70
21108;DHT22;10712;52.944;9.098;2022-09-21T10:37:45;14.50;75.40
21108;DHT22;10712;52.944;9.098;2022-09-21T10:42:45;14.60;74.50
21108;DHT22;10712;52.944;9.098;2022-09-21T10:45:16;14.70;74.50
21108;DHT22;10712;52.944;9.098;2022-09-21T10:48:16;14.70;73.60
21108;DHT22;10712;52.944;9.098;2022-09-21T10:50:45;14.80;73.60
21108;DHT22;10712;52.944;9.098;2022-09-21T10:53:27;14.80;73.60
21108;DHT22;10712;52.944;9.098;2022-09-21T11:01:54;15.00;72.20
21108;DHT22;10712;52.944;9.098;2022-09-21T11:09:56;15.10;71.60
21108;DHT22;10712;52.944;9.098;2022-09-21T11:18:42;15.20;69.60
21108;DHT22;10712;52.944;9.098;2022-09-21T11:27:27;15.30;68.50
21108;DHT22;10712;52.944;9.098;2022-09-21T11:30:12;15.30;68.70
21108;DHT22;10712;52.944;9.098;2022-09-21T11:33:05;15.50;67.70
21108;DHT22;10712;52.944;9.098;2022-09-21T11:35:59;15.60;68.80
21108;DHT22;10712;52.944;9.098;2022-09-21T11:38:54;15.60;68.00
21108;DHT22;10712;52.944;9.098;2022-09-21T11:44:54;15.70;66.70
21108;DHT22;10712;52.944;9.098;2022-09-21T11:50:39;15.60;67.40
21108;DHT22;10712;52.944;9.098;2022-09-21T11:53:18;15.70;67.30
21108;DHT22;10712;52.944;9.098;2022-09-21T11:56:15;15.60;66.00
21108;DHT22;10712;52.944;9.098;2022-09-21T12:11:38;15.80;62.40
21108;DHT22;10712;52.944;9.098;2022-09-21T12:14:21;15.80;62.20
21108;DHT22;10712;52.944;9.098;2022-09-21T12:22:39;15.90;63.20
21108;DHT22;10712;52.944;9.098;2022-09-21T12:25:30;15.90;64.00
21108;DHT22;10712;52.944;9.098;2022-09-21T12:28:26;16.00;62.90
21108;DHT22;10712;52.944;9.098;2022-09-21T12:31:00;16.10;61.70
21108;DHT22;10712;52.944;9.098;2022-09-21T12:33:49;16.10;62.30
21108;DHT22;10712;52.944;9.098;2022-09-21T12:36:36;16.10;61.70
21108;DHT22;10712;52.944;9.098;2022-09-21T12:39:36;16.20;61.50
21108;DHT22;10712;52.944;9.098;2022-09-21T12:42:16;16.20;62.40
21108;DHT22;10712;52.944;9.098;2022-09-21T12:44:49;16.20;62.60
21108;DHT22;10712;52.944;9.098;2022-09-21T12:53:21;16.20;63.20
21108;DHT22;10712;52.944;9.098;2022-09-21T12:56:00;16.30;62.80
21108;DHT22;10712;52.944;9.098;2022-09-21T13:01:31;16.20;63.60
21108;DHT22;10712;52.944;9.098;2022-09-21T13:09:45;16.30;62.60
21108;DHT22;10712;52.944;9.098;2022-09-21T13:14:45;16.50;63.50
21108;DHT22;10712;52.944;9.098;2022-09-21T13:17:30;16.60;63.80
21108;DHT22;10712;52.944;9.098;2022-09-21T13:20:17;16.60;63.70
21108;DHT22;10712;52.944;9.098;2022-09-21T13:22:45;16.60;63.50
21108;DHT22;10712;52.944;9.098;2022-09-21T13:25:22;16.60;63.70
21108;DHT22;10712;52.944;9.098;2022-09-21T13:30:49;16.60;64.00
21108;DHT22;10712;52.944;9.098;2022-09-21T13:33:40;16.60;64.20
21108;DHT22;10712;52.944;9.098;2022-09-21T13:39:34;16.40;64.80
21108;DHT22;10712;52.944;9.098;2022-09-21T13:44:56;16.20;64.80
21108;DHT22;10712;52.944;9.098;2022-09-21T13:47:34;16.10;65.30
21108;DHT22;10712;52.944;9.098;2022-09-21T13:50:26;15.90;66.30
21108;DHT22;10712;52.944;9.098;2022-09-21T13:53:05;15.80;65.70
21108;DHT22;10712;52.944;9.098;2022-09-21T13:55:49;15.70;64.30
21108;DHT22;10712;52.944;9.098;2022-09-21T13:58:19;15.70;64.30
21108;DHT22;10712;52.944;9.098;2022-09-21T14:00:57;15.80;62.90
21108;DHT22;10712;52.944;9.098;2022-09-21T14:03:40;15.80;62.80
21108;DHT22;10712;52.944;9.098;2022-09-21T14:06:26;15.80;63.50
21108;DHT22;10712;52.944;9.098;2022-09-21T14:09:00;15.90;63.10
21108;DHT22;10712;52.944;9.098;2022-09-21T14:11:33;16.00;63.20
21108;DHT22;10712;52.944;9.098;2022-09-21T14:14:06;16.10;63.30
21108;DHT22;10712;52.944;9.098;2022-09-21T14:24:37;16.40;61.70
21108;DHT22;10712;52.944;9.098;2022-09-21T14:27:30;16.40;62.10
21108;DHT22;10712;52.944;9.098;2022-09-21T14:35:35;16.40;61.40
21108;DHT22;10712;52.944;9.098;2022-09-21T14:38:12;16.40;60.80
21108;DHT22;10712;52.944;9.098;2022-09-21T14:40:48;16.40;61.40
21108;DHT22;10712;52.944;9.098;2022-09-21T14:43:32;16.40;61.30
21108;DHT22;10712;52.944;9.098;2022-09-21T14:49:41;16.40;60.00
21108;DHT22;10712;52.944;9.098;2022-09-21T15:01:58;16.30;61.10
21108;DHT22;10712;52.944;9.098;2022-09-21T15:10:55;16.30;60.70
21108;DHT22;10712;52.944;9.098;2022-09-21T15:16:41;16.30;60.60
21108;DHT22;10712;52.944;9.098;2022-09-21T15:19:24;16.20;61.10
21108;DHT22;10712;52.944;9.098;2022-09-21T15:21:54;16.20;61.40
21108;DHT22;10712;52.944;9.098;2022-09-21T15:24:31;16.10;61.40
21108;DHT22;10712;52.944;9.098;2022-09-21T15:29:35;16.00;61.90
21108;DHT22;10712;52.944;9.098;2022-09-21T15:32:02;16.00;62.40
21108;DHT22;10712;52.944;9.098;2022-09-21T15:34:30;16.00;62.90
21108;DHT22;10712;52.944;9.098;2022-09-21T15:37:26;16.00;63.20
21108;DHT22;10712;52.944;9.098;2022-09-21T15:40:05;16.00;62.90
21108;DHT22;10712;52.944;9.098;2022-09-21T15:42:58;16.00;62.60
21108;DHT22;10712;52.944;9.098;2022-09-21T15:45:29;15.90;62.60
21108;DHT22;10712;52.944;9.098;2022-09-21T15:47:59;15.90;62.40
21108;DHT22;10712;52.944;9.098;2022-09-21T15:50:26;15.90;62.00
21108;DHT22;10712;52.944;9.098;2022-09-21T15:53:02;15.80;62.30
21108;DHT22;10712;52.944;9.098;2022-09-21T15:55:33;15.80;62.40
21108;DHT22;10712;52.944;9.098;2022-09-21T15:58:00;15.70;62.30
21108;DHT22;10712;52.944;9.098;2022-09-21T16:00:30;15.70;62.50
21108;DHT22;10712;52.944;9.098;2022-09-21T16:03:31;15.70;62.60
21108;DHT22;10712;52.944;9.098;2022-09-21T16:05:54;15.70;62.50
21108;DHT22;10712;52.944;9.098;2022-09-21T16:08:35;15.60;62.60
21108;DHT22;10712;52.944;9.098;2022-09-21T16:13:46;15.50;63.50
21108;DHT22;10712;52.944;9.098;2022-09-21T16:22:29;15.40;64.10
21108;DHT22;10712;52.944;9.098;2022-09-21T16:25:02;15.30;64.40
21108;DHT22;10712;52.944;9.098;2022-09-21T16:27:50;15.20;64.80
21108;DHT22;10712;52.944;9.098;2022-09-21T16:30:49;15.20;65.10
21108;DHT22;10712;52.944;9.098;2022-09-21T16:38:57;15.10;65.90
21108;DHT22;10712;52.944;9.098;2022-09-21T16:41:51;15.00;66.10
21108;DHT22;10712;52.944;9.098;2022-09-21T16:44:23;15.00;66.40
21108;DHT22;10712;52.944;9.098;2022-09-21T16:46:52;14.90;66.80
21108;DHT22;10712;52.944;9.098;2022-09-21T16:49:21;14.80;67.50
21108;DHT22;10712;52.944;9.098;2022-09-21T16:51:49;14.70;68.10
21108;DHT22;10712;52.944;9.098;2022-09-21T16:54:16;14.70;68.70
21108;DHT22;10712;52.944;9.098;2022-09-21T16:56:43;14.60;69.20
21108;DHT22;10712;52.944;9.098;2022-09-21T16:59:16;14.50;69.70
21108;DHT22;10712;52.944;9.098;2022-09-21T17:01:55;14.50;70.10
21108;DHT22;10712;52.944;9.098;2022-09-21T17:04:25;14.40;70.50
21108;DHT22;10712;52.944;9.098;2022-09-21T17:06:55;14.30;70.90
21108;DHT22;10712;52.944;9.098;2022-09-21T17:09:22;14.20;71.20
21108;DHT22;10712;52.944;9.098;2022-09-21T17:11:51;14.10;71.50
21108;DHT22;10712;52.944;9.098;2022-09-21T17:14:18;14.00;71.70
21108;DHT22;10712;52.944;9.098;2022-09-21T17:16:48;13.90;72.10
21108;DHT22;10712;52.944;9.098;2022-09-21T17:19:17;13.90;72.40
21108;DHT22;10712;52.944;9.098;2022-09-21T17:21:44;13.80;72.90
21108;DHT22;10712;52.944;9.098;2022-09-21T17:24:12;13.70;73.40
21108;DHT22;10712;52.944;9.098;2022-09-21T17:26:41;13.60;73.80
21108;DHT22;10712;52.944;9.098;2022-09-21T17:29:25;13.60;74.20
21108;DHT22;10712;52.944;9.098;2022-09-21T17:31:56;13.50;74.40
21108;DHT22;10712;52.944;9.098;2022-09-21T17:34:27;13.40;74.60
21108;DHT22;10712;52.944;9.098;2022-09-21T17:36:54;13.30;74.90
21108;DHT22;10712;52.944;9.098;2022-09-21T17:39:22;13.30;75.20
21108;DHT22;10712;52.944;9.098;2022-09-21T17:47:24;13.10;76.20
21108;DHT22;10712;52.944;9.098;2022-09-21T17:50:23;13.00;76.60
21108;DHT22;10712;52.944;9.098;2022-09-21T17:52:52;13.00;76.90
21108;DHT22;10712;52.944;9.098;2022-09-21T17:55:42;12.90;77.30
21108;DHT22;10712;52.944;9.098;2022-09-21T17:58:27;12.80;77.50
21108;DHT22;10712;52.944;9.098;2022-09-21T18:01:00;12.80;77.80
21108;DHT22;10712;52.944;9.098;2022-09-21T18:03:35;12.70;78.10
21108;DHT22;10712;52.944;9.098;2022-09-21T18:06:10;12.70;78.40
21108;DHT22;10712;52.944;9.098;2022-09-21T18:08:38;12.60;78.70
21108;DHT22;10712;52.944;9.098;2022-09-21T18:25:36;12.20;80.40
21108;DHT22;10712;52.944;9.098;2022-09-21T18:31:17;12.10;80.60
21108;DHT22;10712;52.944;9.098;2022-09-21T18:36:39;12.10;81.10
21108;DHT22;10712;52.944;9.098;2022-09-21T18:39:25;12.00;81.20
21108;DHT22;10712;52.944;9.098;2022-09-21T18:42:42;11.90;81.30
21108;DHT22;10712;52.944;9.098;2022-09-21T18:45:12;11.90;81.30
21108;DHT22;10712;52.944;9.098;2022-09-21T18:51:06;11.80;81.50
21108;DHT22;10712;52.944;9.098;2022-09-21T18:53:55;11.70;81.50
21108;DHT22;10712;52.944;9.098;2022-09-21T18:56:23;11.70;81.70
21108;DHT22;10712;52.944;9.098;2022-09-21T18:58:51;11.70;81.90
21108;DHT22;10712;52.944;9.098;2022-09-21T19:01:18;11.60;82.10
21108;DHT22;10712;52.944;9.098;2022-09-21T19:03:47;11.60;82.30
21108;DHT22;10712;52.944;9.098;2022-09-21T19:23:30;11.30;82.60
21108;DHT22;10712;52.944;9.098;2022-09-21T19:26:19;11.30;82.60
21108;DHT22;10712;52.944;9.098;2022-09-21T19:31:56;11.10;82.40
21108;DHT22;10712;52.944;9.098;2022-09-21T19:34:22;11.00;82.30
21108;DHT22;10712;52.944;9.098;2022-09-21T19:36:48;11.00;82.30
21108;DHT22;10712;52.944;9.098;2022-09-21T19:39:15;10.90;82.30
21108;DHT22;10712;52.944;9.098;2022-09-21T19:41:50;10.90;82.30
21108;DHT22;10712;52.944;9.098;2022-09-21T19:47:50;10.80;82.20
21108;DHT22;10712;52.944;9.098;2022-09-21T19:50:44;10.70;82.20
21108;DHT22;10712;52.944;9.098;2022-09-21T19:53:13;10.60;82.40
21108;DHT22;10712;52.944;9.098;2022-09-21T19:56:00;10.60;82.50
21108;DHT22;10712;52.944;9.098;2022-09-21T19:58:45;10.50;82.70
21108;DHT22;10712;52.944;9.098;2022-09-21T20:01:33;10.50;82.70
21108;DHT22;10712;52.944;9.098;2022-09-21T20:04:01;10.50;82.80
21108;DHT22;10712;52.944;9.098;2022-09-21T20:06:38;10.40;82.90
21108;DHT22;10712;52.944;9.098;2022-09-21T20:09:22;10.40;83.00
21108;DHT22;10712;52.944;9.098;2022-09-21T20:12:21;10.40;83.10
21108;DHT22;10712;52.944;9.098;2022-09-21T20:15:00;10.40;83.20
21108;DHT22;10712;52.944;9.098;2022-09-21T20:17:48;10.30;83.30
21108;DHT22;10712;52.944;9.098;2022-09-21T20:20:23;10.30;83.30
21108;DHT22;10712;52.944;9.098;2022-09-21T20:22:51;10.30;83.30
21108;DHT22;10712;52.944;9.098;2022-09-21T20:25:24;10.30;83.30